createdAt,value
2023-05-05T00:00:15.615Z,52.97
2023-05-05T00:02:43.734Z,53.24
2023-05-05T00:05:11.613Z,53.23
2023-05-05T00:07:40.785Z,53.33
2023-05-05T00:10:09.208Z,53.18
2023-05-05T00:12:37.800Z,53.44
2023-05-05T00:15:06.635Z,53.36
2023-05-05T00:17:34.658Z,53.38
2023-05-05T00:20:02.509Z,53.28
2023-05-05T00:22:30.399Z,53.34
2023-05-05T00:24:59.541Z,53.50
2023-05-05T00:27:27.337Z,53.55
2023-05-05T00:29:55.161Z,53.69
2023-05-05T00:32:22.962Z,53.43
2023-05-05T00:34:50.802Z,53.54
2023-05-05T00:37:18.621Z,53.91
2023-05-05T00:39:46.431Z,53.73
2023-05-05T00:42:15.749Z,53.83
2023-05-05T00:44:44.806Z,53.95
2023-05-05T00:47:13.906Z,53.80
2023-05-05T00:49:41.803Z,53.76
2023-05-05T00:52:10.621Z,54.21
2023-05-05T00:54:39.844Z,54.12
2023-05-05T00:57:07.829Z,53.93
2023-05-05T00:59:37.880Z,54.36
2023-05-05T01:02:05.989Z,54.19
2023-05-05T01:04:33.832Z,54.48
2023-05-05T01:07:14.764Z,54.25
2023-05-05T01:10:07.287Z,54.53
2023-05-05T01:12:47.553Z,54.60
2023-05-05T01:15:26.421Z,54.55
2023-05-05T01:18:01.752Z,54.58
2023-05-05T01:20:37.216Z,54.79
2023-05-05T01:23:08.437Z,54.60
2023-05-05T01:26:10.721Z,54.49
2023-05-05T01:29:02.365Z,54.97
2023-05-05T01:31:51.772Z,54.70
2023-05-05T01:34:24.330Z,54.91
2023-05-05T01:36:59.344Z,54.74
2023-05-05T01:39:32.440Z,55.13
2023-05-05T01:42:06.737Z,54.73
2023-05-05T01:44:37.470Z,54.99
2023-05-05T01:47:07.710Z,54.92
2023-05-05T01:49:38.244Z,55.37
2023-05-05T01:52:07.836Z,55.45
2023-05-05T01:54:36.079Z,55.71
2023-05-05T01:57:05.850Z,55.08
2023-05-05T01:59:34.931Z,55.56
2023-05-05T02:02:04.316Z,55.45
2023-05-05T02:04:35.285Z,55.36
2023-05-05T02:07:04.401Z,55.41
2023-05-05T02:09:33.938Z,55.16
2023-05-05T02:12:03.096Z,55.67
2023-05-05T02:14:32.153Z,56.01
2023-05-05T02:17:01.397Z,55.44
2023-05-05T02:19:31.358Z,56.31
2023-05-05T02:22:01.139Z,56.38
2023-05-05T02:24:30.104Z,56.05
2023-05-05T02:27:03.728Z,55.81
2023-05-05T02:29:35.519Z,56.41
2023-05-05T02:32:06.860Z,56.02
2023-05-05T02:34:37.749Z,56.25
2023-05-05T02:37:13.114Z,55.96
2023-05-05T02:39:51.564Z,56.43
2023-05-05T02:42:23.337Z,56.47
2023-05-05T02:44:56.401Z,56.94
2023-05-05T02:47:29.047Z,56.94
2023-05-05T02:49:57.376Z,56.68
2023-05-05T02:52:26.801Z,56.75
2023-05-05T02:54:54.820Z,56.72
2023-05-05T02:57:27.604Z,56.35
2023-05-05T03:00:06.963Z,56.93
2023-05-05T03:02:52.969Z,57.20
2023-05-05T03:05:23.337Z,57.07
2023-05-05T03:07:58.194Z,56.75
2023-05-05T03:10:32.021Z,57.53
2023-05-05T03:13:03.898Z,57.44
2023-05-05T03:15:43.579Z,57.40
2023-05-05T03:18:13.240Z,57.06
2023-05-05T03:20:44.877Z,58.17
2023-05-05T03:23:18.350Z,58.03
2023-05-05T03:25:48.116Z,57.41
2023-05-05T03:28:38.624Z,57.77
2023-05-05T03:31:18.138Z,57.98
2023-05-05T03:33:50.619Z,58.19
2023-05-05T03:36:21.073Z,57.48
2023-05-05T03:38:50.536Z,58.13
2023-05-05T03:41:20.889Z,58.43
2023-05-05T03:43:48.721Z,57.78
2023-05-05T03:46:17.391Z,58.02
2023-05-05T03:48:45.444Z,57.88
2023-05-05T03:51:13.807Z,58.63
2023-05-05T03:53:42.189Z,58.24
2023-05-05T03:56:12.561Z,58.48
2023-05-05T03:58:40.548Z,58.14
2023-05-05T04:01:08.514Z,58.92
2023-05-05T04:03:36.633Z,58.48
2023-05-05T04:06:04.774Z,58.59
2023-05-05T04:08:33.709Z,58.81
2023-05-05T04:11:03.163Z,58.55
2023-05-05T04:13:34.236Z,58.95
2023-05-05T04:16:03.720Z,58.65
2023-05-05T04:18:32.273Z,58.93
2023-05-05T04:21:00.800Z,58.88
2023-05-05T04:23:28.684Z,59.44
2023-05-05T04:25:56.996Z,58.90
2023-05-05T04:28:26.499Z,59.30
2023-05-05T04:30:55.808Z,59.35
2023-05-05T04:33:23.922Z,59.51
2023-05-05T04:35:51.809Z,59.98
2023-05-05T04:38:21.079Z,59.90
2023-05-05T04:40:50.118Z,60.34
2023-05-05T04:43:18.410Z,60.30
2023-05-05T04:45:53.536Z,59.70
2023-05-05T04:48:24.788Z,60.18
2023-05-05T04:50:53.182Z,59.64
2023-05-05T04:53:21.156Z,59.60
2023-05-05T04:55:50.825Z,60.64
2023-05-05T04:58:19.109Z,60.66
2023-05-05T05:00:47.248Z,60.60
2023-05-05T05:03:15.043Z,60.20
2023-05-05T05:05:44.357Z,60.19
2023-05-05T05:08:12.181Z,60.98
2023-05-05T05:10:41.472Z,60.56
2023-05-05T05:13:11.256Z,60.75
2023-05-05T05:15:40.753Z,61.07
2023-05-05T05:18:08.770Z,61.18
2023-05-05T05:20:36.625Z,61.34
2023-05-05T05:23:05.925Z,61.07
2023-05-05T05:25:37.806Z,61.65
2023-05-05T05:28:09.459Z,61.49
2023-05-05T05:30:42.611Z,61.33
2023-05-05T05:33:12.040Z,61.34
2023-05-05T05:35:40.815Z,61.83
2023-05-05T05:38:10.705Z,61.92
2023-05-05T05:40:38.585Z,61.88
2023-05-05T05:43:06.940Z,61.84
2023-05-05T05:45:36.472Z,61.99
2023-05-05T05:48:06.479Z,61.57
2023-05-05T05:53:04.018Z,62.12
2023-05-05T05:55:33.590Z,62.33
2023-05-05T05:58:02.399Z,61.99
2023-05-05T06:00:30.991Z,62.22
2023-05-05T06:03:05.415Z,62.17
2023-05-05T06:05:36.837Z,62.28
2023-05-05T06:08:05.026Z,62.54
2023-05-05T06:10:38.160Z,62.74
2023-05-05T06:13:10.495Z,62.82
2023-05-05T06:15:42.477Z,62.62
2023-05-05T06:18:12.475Z,62.79
2023-05-05T06:20:40.346Z,62.79
2023-05-05T06:23:08.671Z,63.10
2023-05-05T06:25:41.987Z,62.96
2023-05-05T06:28:09.879Z,63.33
2023-05-05T06:30:37.810Z,63.33
2023-05-05T06:33:05.735Z,63.12
2023-05-05T06:35:33.562Z,63.51
2023-05-05T06:38:01.390Z,63.67
2023-05-05T06:40:29.269Z,63.48
2023-05-05T06:42:58.423Z,63.33
2023-05-05T06:45:31.165Z,63.54
2023-05-05T06:47:59.063Z,63.36
2023-05-05T06:50:27.042Z,64.08
2023-05-05T06:52:54.826Z,63.73
2023-05-05T06:55:23.407Z,63.90
2023-05-05T06:57:51.339Z,63.75
2023-05-05T07:00:22.141Z,63.96
2023-05-05T07:02:49.999Z,63.86
2023-05-05T07:05:17.876Z,64.10
2023-05-05T07:07:52.633Z,63.82
2023-05-05T07:10:20.578Z,64.35
2023-05-05T07:12:48.490Z,64.05
2023-05-05T07:15:26.801Z,64.06
2023-05-05T07:17:58.055Z,64.04
2023-05-05T07:20:26.780Z,64.10
2023-05-05T07:22:54.769Z,64.34
2023-05-05T07:25:22.822Z,63.96
2023-05-05T07:27:51.118Z,63.96
2023-05-05T07:30:19.666Z,64.10
2023-05-05T07:32:47.952Z,64.23
2023-05-05T07:35:17.378Z,64.02
2023-05-05T07:37:45.580Z,64.19
2023-05-05T07:40:14.084Z,64.24
2023-05-05T07:42:42.092Z,64.21
2023-05-05T07:45:10.454Z,64.26
2023-05-05T07:47:38.380Z,64.12
2023-05-05T07:50:07.957Z,64.21
2023-05-05T07:52:45.353Z,64.13
2023-05-05T07:55:17.791Z,64.27
2023-05-05T07:57:45.746Z,64.25
2023-05-05T08:00:14.844Z,64.20
2023-05-05T08:02:44.023Z,64.13
2023-05-05T08:05:12.851Z,64.09
2023-05-05T08:07:42.076Z,64.22
2023-05-05T08:10:11.896Z,64.19
2023-05-05T08:12:40.027Z,63.95
2023-05-05T08:15:09.096Z,64.10
2023-05-05T08:17:47.990Z,64.13
2023-05-05T08:20:16.028Z,64.30
2023-05-05T08:22:45.322Z,63.79
2023-05-05T08:25:13.857Z,63.84
2023-05-05T08:27:42.679Z,63.94
2023-05-05T08:30:11.843Z,64.03
2023-05-05T08:32:39.753Z,63.95
2023-05-05T08:35:08.526Z,63.98
2023-05-05T08:37:36.651Z,63.76
2023-05-05T08:40:06.673Z,63.81
2023-05-05T08:42:38.806Z,63.79
2023-05-05T08:45:09.020Z,63.57
2023-05-05T08:47:38.756Z,63.62
2023-05-05T08:50:11.001Z,63.55
2023-05-05T08:52:41.368Z,63.53
2023-05-05T08:55:25.621Z,63.46
2023-05-05T08:57:56.495Z,63.36
2023-05-05T09:00:26.465Z,63.27
2023-05-05T09:02:57.076Z,63.12
2023-05-05T09:05:24.955Z,63.12
2023-05-05T09:07:53.180Z,63.03
2023-05-05T09:10:22.475Z,62.83
2023-05-05T09:12:51.627Z,62.98
2023-05-05T09:15:19.612Z,62.87
2023-05-05T09:17:48.215Z,62.81
2023-05-05T09:20:16.370Z,62.73
2023-05-05T09:22:45.557Z,62.50
2023-05-05T09:25:14.980Z,62.51
2023-05-05T09:27:46.791Z,62.48
2023-05-05T09:30:16.547Z,62.56
2023-05-05T09:32:46.218Z,62.46
2023-05-05T09:35:14.198Z,62.30
2023-05-05T09:37:42.322Z,62.24
2023-05-05T09:40:11.265Z,62.24
2023-05-05T09:42:40.222Z,62.25
2023-05-05T09:45:27.442Z,62.08
2023-05-05T09:47:59.570Z,62.10
2023-05-05T09:50:30.683Z,61.98
2023-05-05T09:53:00.853Z,62.06
2023-05-05T09:55:29.021Z,61.98
2023-05-05T09:57:56.860Z,62.00
2023-05-05T10:00:39.151Z,61.86
2023-05-05T10:03:07.229Z,61.91
2023-05-05T10:05:48.571Z,61.65
2023-05-05T10:08:17.625Z,61.78
2023-05-05T10:10:51.529Z,61.84
2023-05-05T10:13:20.907Z,61.65
2023-05-05T10:15:52.077Z,61.74
2023-05-05T10:18:25.043Z,61.81
2023-05-05T10:20:59.268Z,61.50
2023-05-05T10:23:34.225Z,61.68
2023-05-05T10:26:04.304Z,61.54
2023-05-05T10:28:34.772Z,61.46
2023-05-05T10:31:16.502Z,61.66
2023-05-05T10:33:55.499Z,61.65
2023-05-05T10:36:24.450Z,61.33
2023-05-05T10:38:56.223Z,61.40
2023-05-05T10:41:25.309Z,61.62
2023-05-05T10:43:56.226Z,61.43
2023-05-05T10:46:26.768Z,61.35
2023-05-05T10:49:00.931Z,61.58
2023-05-05T10:51:41.486Z,61.42
2023-05-05T10:54:17.836Z,61.45
2023-05-05T10:56:48.194Z,61.42
2023-05-05T10:59:41.871Z,61.38
2023-05-05T11:02:24.650Z,61.54
2023-05-05T11:05:09.348Z,61.68
2023-05-05T11:07:37.524Z,61.34
2023-05-05T11:10:06.984Z,61.32
2023-05-05T11:13:13.504Z,61.41
2023-05-05T11:15:41.579Z,61.26
2023-05-05T11:18:30.560Z,61.34
2023-05-05T11:21:18.210Z,61.32
2023-05-05T11:23:47.823Z,61.10
2023-05-05T11:26:17.326Z,61.20
2023-05-05T11:29:00.322Z,61.11
2023-05-05T11:31:28.870Z,61.03
2023-05-05T11:34:31.055Z,60.95
2023-05-05T11:37:03.056Z,61.15
2023-05-05T11:39:41.742Z,61.13
2023-05-05T11:42:25.766Z,60.88
2023-05-05T11:44:54.740Z,60.94
2023-05-05T11:47:34.551Z,61.07
2023-05-05T11:50:21.699Z,60.89
2023-05-05T11:52:50.037Z,60.81
2023-05-05T11:55:22.954Z,60.93
2023-05-05T11:57:51.092Z,60.77
2023-05-05T12:00:19.900Z,60.55
2023-05-05T12:02:48.163Z,60.62
2023-05-05T12:05:22.085Z,60.45
2023-05-05T12:07:56.824Z,60.62
2023-05-05T12:10:24.932Z,60.48
2023-05-05T12:12:55.496Z,60.29
2023-05-05T12:15:31.523Z,60.55
2023-05-05T12:18:01.607Z,60.26
2023-05-05T12:20:33.759Z,60.52
2023-05-05T12:23:05.006Z,60.51
2023-05-05T12:25:38.111Z,60.07
2023-05-05T12:28:07.488Z,60.04
2023-05-05T12:30:35.786Z,59.95
2023-05-05T12:33:04.561Z,60.00
2023-05-05T12:35:34.465Z,60.10
2023-05-05T12:38:02.337Z,60.32
2023-05-05T12:40:47.213Z,59.79
2023-05-05T12:43:26.603Z,59.73
2023-05-05T12:46:05.619Z,59.97
2023-05-05T12:48:33.803Z,59.71
2023-05-05T12:51:20.354Z,59.84
2023-05-05T12:53:49.437Z,59.58
2023-05-05T12:56:48.201Z,59.73
2023-05-05T12:59:30.711Z,59.68
2023-05-05T13:01:59.947Z,59.58
2023-05-05T13:04:29.310Z,59.30
2023-05-05T13:07:12.750Z,59.17
2023-05-05T13:09:40.698Z,59.54
2023-05-05T13:12:11.871Z,59.32
2023-05-05T13:14:40.653Z,59.07
2023-05-05T13:17:08.858Z,58.79
2023-05-05T13:19:41.870Z,58.82
2023-05-05T13:22:11.176Z,58.85
2023-05-05T13:24:50.591Z,59.06
2023-05-05T13:27:19.199Z,59.06
2023-05-05T13:29:47.064Z,58.77
2023-05-05T13:32:14.860Z,59.02
2023-05-05T13:34:44.074Z,58.94
2023-05-05T13:37:13.286Z,58.79
2023-05-05T13:39:41.104Z,58.83
2023-05-05T13:42:09.094Z,58.74
2023-05-05T13:44:36.926Z,58.84
2023-05-05T13:47:04.921Z,58.69
2023-05-05T13:49:32.749Z,58.68
2023-05-05T13:52:00.575Z,58.64
2023-05-05T13:54:29.734Z,58.66
2023-05-05T13:56:57.850Z,58.56
2023-05-05T13:59:26.308Z,58.50
2023-05-05T14:01:54.149Z,58.53
2023-05-05T14:04:21.962Z,58.43
2023-05-05T14:06:49.856Z,58.40
2023-05-05T14:09:17.695Z,58.39
2023-05-05T14:11:46.819Z,58.60
2023-05-05T14:14:14.620Z,58.54
2023-05-05T14:16:42.432Z,58.47
2023-05-05T14:19:10.343Z,58.43
2023-05-05T14:21:38.154Z,58.60
2023-05-05T14:24:06.505Z,58.61
2023-05-05T14:26:34.376Z,58.58
2023-05-05T14:29:03.943Z,58.61
2023-05-05T14:31:31.795Z,58.78
2023-05-05T14:33:59.645Z,58.91
2023-05-05T14:36:27.443Z,59.06
2023-05-05T14:38:55.442Z,59.06
2023-05-05T14:41:23.581Z,59.05
2023-05-05T14:43:51.396Z,59.45
2023-05-05T14:46:20.646Z,59.58
2023-05-05T14:48:48.543Z,59.65
2023-05-05T14:51:16.799Z,59.94
2023-05-05T14:53:44.661Z,59.99
2023-05-05T14:56:12.605Z,60.21
2023-05-05T14:58:40.582Z,60.34
2023-05-05T15:01:08.404Z,60.55
2023-05-05T15:03:37.795Z,60.66
2023-05-05T15:06:05.877Z,60.83
2023-05-05T15:08:33.746Z,60.79
2023-05-05T15:11:01.689Z,61.17
2023-05-05T15:13:29.744Z,61.23
2023-05-05T15:15:57.662Z,61.29
2023-05-05T15:18:25.675Z,61.63
2023-05-05T15:20:54.792Z,61.54
2023-05-05T15:23:22.681Z,61.60
2023-05-05T15:25:50.527Z,61.62
2023-05-05T15:28:18.681Z,61.85
2023-05-05T15:30:46.521Z,62.11
2023-05-05T15:33:14.375Z,61.91
2023-05-05T15:35:42.185Z,62.12
2023-05-05T15:38:11.438Z,62.19
2023-05-05T15:40:39.231Z,62.30
2023-05-05T15:43:07.061Z,62.37
2023-05-05T15:45:35.115Z,62.67
2023-05-05T15:48:02.985Z,62.56
2023-05-05T15:50:30.973Z,62.59
2023-05-05T15:52:59.033Z,62.83
2023-05-05T15:55:28.968Z,62.87
2023-05-05T15:57:56.766Z,62.88
2023-05-05T16:00:25.744Z,63.12
2023-05-05T16:02:53.759Z,63.44
2023-05-05T16:05:23.090Z,63.36
2023-05-05T16:07:52.442Z,63.34
2023-05-05T16:10:20.548Z,63.43
2023-05-05T16:12:50.009Z,63.83
2023-05-05T16:15:17.872Z,63.86
2023-05-05T16:17:45.813Z,63.74
2023-05-05T16:20:14.062Z,64.19
2023-05-05T16:22:41.859Z,64.21
2023-05-05T16:25:12.357Z,64.22
2023-05-05T16:27:40.158Z,64.60
2023-05-05T16:30:12.738Z,64.50
2023-05-05T16:32:40.593Z,64.57
2023-05-05T16:35:09.232Z,64.66
2023-05-05T16:37:37.296Z,64.83
2023-05-05T16:40:06.699Z,64.90
2023-05-05T16:42:34.537Z,65.07
2023-05-05T16:45:02.347Z,65.17
2023-05-05T16:47:34.745Z,65.31
2023-05-05T16:50:02.395Z,65.37
2023-05-05T16:52:30.189Z,65.54
2023-05-05T16:54:57.987Z,65.74
2023-05-05T16:57:25.855Z,65.92
2023-05-05T16:59:56.288Z,65.75
2023-05-05T17:02:24.182Z,66.01
2023-05-05T17:04:53.435Z,66.17
2023-05-05T17:07:21.356Z,66.32
2023-05-05T17:09:49.232Z,66.43
2023-05-05T17:12:17.042Z,66.56
2023-05-05T17:14:45.340Z,66.66
2023-05-05T17:17:13.226Z,66.84
2023-05-05T17:19:42.529Z,66.95
2023-05-05T17:22:11.680Z,67.16
2023-05-05T17:24:39.501Z,67.13
2023-05-05T17:27:07.364Z,67.33
2023-05-05T17:29:40.695Z,67.49
2023-05-05T17:32:08.769Z,67.60
2023-05-05T17:34:36.718Z,67.85
2023-05-05T17:37:04.728Z,67.83
2023-05-05T17:39:33.862Z,68.06
2023-05-05T17:42:01.708Z,68.26
2023-05-05T17:44:31.391Z,68.29
2023-05-05T17:46:59.288Z,68.36
2023-05-05T17:49:27.075Z,68.52
2023-05-05T17:51:54.890Z,68.76
2023-05-05T17:54:22.718Z,68.78
2023-05-05T17:56:51.906Z,69.08
2023-05-05T17:59:19.690Z,69.21
2023-05-05T18:01:47.573Z,69.49
2023-05-05T18:04:15.880Z,69.46
2023-05-05T18:06:43.674Z,69.64
2023-05-05T18:09:12.029Z,69.85
2023-05-05T18:11:39.851Z,69.96
2023-05-05T18:14:10.677Z,70.13
2023-05-05T18:16:38.491Z,70.23
2023-05-05T18:19:06.354Z,70.28
2023-05-05T18:21:34.191Z,70.50
2023-05-05T18:24:15.788Z,70.63
2023-05-05T18:26:48.927Z,70.77
2023-05-05T18:29:18.239Z,70.96
2023-05-05T18:31:50.848Z,70.97
2023-05-05T18:34:19.362Z,71.29
2023-05-05T18:36:47.746Z,70.99
2023-05-05T18:39:15.683Z,71.47
2023-05-05T18:41:43.622Z,71.53
2023-05-05T18:44:11.625Z,71.86
2023-05-05T18:46:41.272Z,71.91
2023-05-05T18:49:09.123Z,71.96
2023-05-05T18:51:37.223Z,72.29
2023-05-05T18:54:05.404Z,72.20
2023-05-05T18:56:33.378Z,72.36
2023-05-05T18:59:01.164Z,72.58
2023-05-05T19:01:29.040Z,72.54
2023-05-05T19:03:58.231Z,72.69
2023-05-05T19:06:26.126Z,72.86
2023-05-05T19:08:53.983Z,72.88
2023-05-05T19:11:21.931Z,73.08
2023-05-05T19:13:49.770Z,72.99
2023-05-05T19:16:17.956Z,73.15
2023-05-05T19:18:45.937Z,73.35
2023-05-05T19:21:15.170Z,73.42
2023-05-05T19:23:42.989Z,73.51
2023-05-05T19:26:11.536Z,73.67
2023-05-05T19:28:39.493Z,73.66
2023-05-05T19:31:07.346Z,73.92
2023-05-05T19:33:36.469Z,74.04
2023-05-05T19:36:04.575Z,74.02
2023-05-05T19:38:33.761Z,74.25
2023-05-05T19:41:01.598Z,74.41
2023-05-05T19:43:29.484Z,74.28
2023-05-05T19:45:57.320Z,74.41
2023-05-05T19:48:25.478Z,74.54
2023-05-05T19:50:53.373Z,74.42
2023-05-05T19:53:21.209Z,74.79
2023-05-05T19:55:50.599Z,74.96
2023-05-05T19:58:18.899Z,74.88
2023-05-05T20:00:46.698Z,75.14
2023-05-05T20:03:14.762Z,75.12
2023-05-05T20:05:42.630Z,75.16
2023-05-05T20:08:10.709Z,75.42
2023-05-05T20:10:38.568Z,75.55
2023-05-05T20:13:07.813Z,75.58
2023-05-05T20:15:35.714Z,75.64
2023-05-05T20:18:03.906Z,75.78
2023-05-05T20:20:31.857Z,75.79
2023-05-05T20:22:59.734Z,75.77
2023-05-05T20:25:27.750Z,75.92
2023-05-05T20:27:55.578Z,76.12
2023-05-05T20:30:24.772Z,75.83
2023-05-05T20:32:53.528Z,76.00
2023-05-05T20:35:21.499Z,76.48
2023-05-05T20:37:49.349Z,76.49
2023-05-05T20:40:17.199Z,76.41
2023-05-05T20:42:45.099Z,76.58
2023-05-05T20:45:13.071Z,76.57
2023-05-05T20:47:42.431Z,76.60
2023-05-05T20:50:11.359Z,76.84
2023-05-05T20:52:39.420Z,76.86
2023-05-05T20:55:07.923Z,77.10
2023-05-05T20:57:35.759Z,77.11
2023-05-05T21:00:04.159Z,77.03
2023-05-05T21:02:32.500Z,77.41
2023-05-05T21:05:03.138Z,77.21
2023-05-05T21:07:33.122Z,77.27
2023-05-05T21:10:01.287Z,77.49
2023-05-05T21:12:29.958Z,77.47
2023-05-05T21:14:58.741Z,77.58
2023-05-05T21:17:26.834Z,77.51
2023-05-05T21:19:54.968Z,77.92
2023-05-05T21:22:24.474Z,77.89
2023-05-05T21:24:52.263Z,77.86
2023-05-05T21:27:20.275Z,77.98
2023-05-05T21:29:48.146Z,78.03
2023-05-05T21:32:15.938Z,78.33
2023-05-05T21:34:43.781Z,78.21
2023-05-05T21:37:12.139Z,78.45
2023-05-05T21:39:41.695Z,78.27
2023-05-05T21:42:09.638Z,78.42
2023-05-05T21:44:37.420Z,78.57
2023-05-05T21:47:06.238Z,78.53
2023-05-05T21:49:34.031Z,78.58
2023-05-05T21:52:01.875Z,78.59
2023-05-05T21:54:30.709Z,78.94
2023-05-05T21:57:00.190Z,78.87
2023-05-05T21:59:28.055Z,78.85
2023-05-05T22:01:56.052Z,78.85
2023-05-05T22:06:36.025Z,79.00
2023-05-05T22:09:03.860Z,79.14
2023-05-05T22:11:31.714Z,79.34
2023-05-05T22:13:59.581Z,79.44
2023-05-05T22:16:27.417Z,79.31
2023-05-05T22:18:55.230Z,79.57
2023-05-05T22:21:23.050Z,79.28
2023-05-05T22:23:52.285Z,79.69
2023-05-05T22:26:20.217Z,79.54
2023-05-05T22:28:48.024Z,79.52
2023-05-05T22:31:15.818Z,79.66
2023-05-05T22:33:43.656Z,79.76
2023-05-05T22:36:11.536Z,79.66
2023-05-05T22:38:39.403Z,79.93
2023-05-05T22:41:08.720Z,79.98
2023-05-05T22:43:37.006Z,79.78
2023-05-05T22:46:04.905Z,79.88
2023-05-05T22:48:32.666Z,80.13
2023-05-05T22:51:00.495Z,79.87
2023-05-05T22:53:28.316Z,80.04
2023-05-05T22:55:58.252Z,80.23
2023-05-05T22:58:27.796Z,79.91
2023-05-05T23:00:55.615Z,80.37
2023-05-05T23:03:23.381Z,80.24
2023-05-05T23:05:51.192Z,80.53
2023-05-05T23:08:20.273Z,80.40
2023-05-05T23:10:48.190Z,80.51
2023-05-05T23:13:16.216Z,80.81
2023-05-05T23:15:45.565Z,80.73
2023-05-05T23:18:13.357Z,80.58
2023-05-05T23:20:41.165Z,80.70
2023-05-05T23:23:08.941Z,80.51
2023-05-05T23:25:36.769Z,80.93
2023-05-05T23:28:04.829Z,80.63
2023-05-05T23:30:32.628Z,80.86
2023-05-05T23:33:01.957Z,81.11
2023-05-05T23:35:29.777Z,80.51
2023-05-05T23:37:57.528Z,80.60
2023-05-05T23:40:25.404Z,80.88
2023-05-05T23:42:53.199Z,80.88
2023-05-05T23:45:20.959Z,81.18
2023-05-05T23:47:48.862Z,81.07
2023-05-05T23:50:18.050Z,81.35
2023-05-05T23:52:45.854Z,80.90
2023-05-05T23:55:14.415Z,80.98
2023-05-05T23:57:42.222Z,81.20
